createdAt,value
2022-08-03T00:01:49.839Z,3.20
2022-08-03T00:04:17.671Z,3.08
2022-08-03T00:06:44.459Z,2.83
2022-08-03T00:09:11.700Z,3.05
2022-08-03T00:11:38.619Z,3.80
2022-08-03T00:14:06.458Z,2.67
2022-08-03T00:16:33.390Z,3.15
2022-08-03T00:19:00.607Z,2.90
2022-08-03T00:21:28.493Z,2.97
2022-08-03T00:23:55.304Z,3.28
2022-08-03T00:26:22.033Z,3.08
2022-08-03T00:28:49.639Z,3.60
2022-08-03T00:31:16.665Z,3.60
2022-08-03T00:33:57.925Z,3.70
2022-08-03T00:36:25.834Z,3.72
2022-08-03T00:38:52.515Z,3.75
2022-08-03T00:41:19.249Z,3.60
2022-08-03T00:43:47.341Z,3.65
2022-08-03T00:46:19.005Z,4.03
2022-08-03T00:48:48.470Z,3.90
2022-08-03T00:51:15.532Z,3.70
2022-08-03T00:53:42.828Z,3.88
2022-08-03T00:56:09.616Z,3.88
2022-08-03T00:58:36.820Z,3.83
2022-08-03T01:01:06.912Z,3.75
2022-08-03T01:03:33.764Z,3.88
2022-08-03T01:06:19.929Z,3.33
2022-08-03T01:08:46.630Z,3.22
2022-08-03T01:11:23.950Z,3.67
2022-08-03T01:14:20.845Z,3.75
2022-08-03T01:17:13.270Z,3.78
2022-08-03T01:19:50.550Z,4.05
2022-08-03T01:25:40.632Z,3.72
2022-08-03T01:28:42.087Z,3.95
2022-08-03T01:31:11.537Z,4.43
2022-08-03T01:33:45.374Z,4.38
2022-08-03T01:36:19.387Z,3.90
2022-08-03T01:38:55.145Z,4.13
2022-08-03T01:41:26.764Z,4.10
2022-08-03T01:44:29.547Z,4.13
2022-08-03T01:46:47.561Z,4.38
2022-08-03T01:49:17.340Z,4.10
2022-08-03T01:52:03.014Z,4.10
2022-08-03T01:54:35.390Z,4.18
2022-08-03T01:57:03.732Z,4.75
2022-08-03T01:59:34.503Z,3.78
2022-08-03T02:02:16.013Z,3.97
2022-08-03T02:05:01.506Z,4.13
2022-08-03T02:07:30.183Z,4.57
2022-08-03T02:09:58.287Z,3.88
2022-08-03T02:12:27.999Z,3.63
2022-08-03T02:14:56.997Z,4.20
2022-08-03T02:17:39.832Z,4.30
2022-08-03T02:20:12.585Z,3.83
2022-08-03T02:22:44.452Z,4.40
2022-08-03T02:25:13.419Z,4.50
2022-08-03T02:27:47.491Z,4.20
2022-08-03T02:30:14.700Z,4.50
2022-08-03T02:32:46.976Z,4.20
2022-08-03T02:35:16.908Z,3.90
2022-08-03T02:37:56.490Z,4.57
2022-08-03T02:40:24.117Z,4.40
2022-08-03T02:42:54.984Z,4.45
2022-08-03T02:45:24.265Z,4.47
2022-08-03T02:47:55.500Z,4.40
2022-08-03T02:50:24.393Z,4.50
2022-08-03T02:52:52.699Z,4.38
2022-08-03T02:55:21.862Z,4.22
2022-08-03T02:57:50.136Z,4.35
2022-08-03T03:00:27.084Z,4.45
2022-08-03T03:02:57.338Z,4.85
2022-08-03T03:05:56.194Z,4.40
2022-08-03T03:08:20.604Z,4.28
2022-08-03T03:10:53.186Z,4.50
2022-08-03T03:13:23.325Z,4.95
2022-08-03T03:18:22.120Z,4.57
2022-08-03T03:20:51.440Z,5.28
2022-08-03T03:23:19.197Z,4.97
2022-08-03T03:25:46.528Z,5.22
2022-08-03T03:28:13.540Z,4.65
2022-08-03T03:30:40.538Z,5.47
2022-08-03T03:33:07.526Z,5.22
2022-08-03T03:35:37.133Z,5.43
2022-08-03T03:38:07.020Z,4.93
2022-08-03T03:40:36.340Z,5.05
2022-08-03T03:43:03.545Z,4.85
2022-08-03T03:45:31.557Z,5.05
2022-08-03T03:48:01.692Z,4.70
2022-08-03T03:50:29.922Z,5.13
2022-08-03T03:52:56.626Z,5.78
2022-08-03T03:55:23.487Z,5.60
2022-08-03T03:57:50.184Z,5.85
2022-08-03T04:00:18.568Z,6.00
2022-08-03T04:02:46.396Z,5.50
2022-08-03T04:05:32.823Z,5.72
2022-08-03T04:08:22.179Z,5.55
2022-08-03T04:11:15.862Z,5.75
2022-08-03T04:13:54.950Z,5.38
2022-08-03T04:16:26.451Z,5.00
2022-08-03T04:18:58.921Z,4.90
2022-08-03T04:21:26.595Z,5.82
2022-08-03T04:23:57.975Z,5.43
2022-08-03T04:26:29.792Z,5.47
2022-08-03T04:28:58.723Z,5.32
2022-08-03T04:31:27.159Z,5.28
2022-08-03T04:33:55.354Z,6.00
2022-08-03T04:36:25.959Z,5.60
2022-08-03T04:39:02.687Z,5.28
2022-08-03T04:41:30.983Z,5.95
2022-08-03T04:44:00.305Z,6.05
2022-08-03T04:46:30.576Z,5.72
2022-08-03T04:48:58.432Z,6.25
2022-08-03T04:51:25.903Z,5.95
2022-08-03T04:56:19.828Z,5.80
2022-08-03T04:58:46.517Z,5.25
2022-08-03T05:01:13.400Z,5.43
2022-08-03T05:03:40.455Z,5.30
2022-08-03T05:06:11.015Z,5.30
2022-08-03T05:08:46.448Z,5.15
2022-08-03T05:11:16.229Z,5.30
2022-08-03T05:13:43.985Z,5.68
2022-08-03T05:16:11.965Z,5.43
2022-08-03T05:18:38.731Z,5.40
2022-08-03T05:21:08.393Z,5.90
2022-08-03T05:23:35.527Z,5.70
2022-08-03T05:28:29.441Z,4.95
2022-08-03T05:30:56.552Z,4.82
2022-08-03T05:36:02.518Z,4.65
2022-08-03T05:38:34.657Z,5.75
2022-08-03T05:41:22.614Z,5.07
2022-08-03T05:43:51.571Z,5.65
2022-08-03T05:46:18.404Z,5.00
2022-08-03T05:48:45.139Z,4.88
2022-08-03T05:51:12.365Z,4.63
2022-08-03T05:53:41.001Z,4.55
2022-08-03T05:56:14.172Z,4.55
2022-08-03T05:58:48.781Z,4.05
2022-08-03T06:01:16.966Z,4.57
2022-08-03T06:03:44.590Z,4.13
2022-08-03T06:06:12.045Z,3.50
2022-08-03T06:08:39.954Z,3.63
2022-08-03T06:11:07.274Z,3.05
2022-08-03T06:13:33.999Z,3.22
2022-08-03T06:16:00.772Z,2.92
2022-08-03T06:18:27.523Z,2.95
2022-08-03T06:20:55.051Z,2.80
2022-08-03T06:23:22.161Z,3.38
2022-08-03T06:28:51.404Z,3.00
2022-08-03T06:31:04.356Z,2.60
2022-08-03T06:34:31.477Z,2.63
2022-08-03T06:36:20.627Z,2.90
2022-08-03T06:44:03.173Z,2.55
2022-08-03T06:46:27.483Z,2.47
2022-08-03T06:48:55.578Z,2.58
2022-08-03T06:51:23.587Z,2.72
2022-08-03T06:54:10.811Z,2.95
2022-08-03T06:56:37.719Z,2.60
2022-08-03T06:59:04.575Z,3.03
2022-08-03T07:01:31.430Z,2.63
2022-08-03T07:03:58.300Z,3.00
2022-08-03T07:06:24.980Z,2.40
2022-08-03T07:08:54.467Z,3.22
2022-08-03T07:11:23.415Z,3.35
2022-08-03T07:13:50.134Z,3.28
2022-08-03T07:16:16.904Z,2.88
2022-08-03T07:18:44.605Z,2.75
2022-08-03T07:21:12.794Z,2.97
2022-08-03T07:28:33.139Z,2.10
2022-08-03T07:31:00.017Z,2.33
2022-08-03T07:33:26.847Z,2.10
2022-08-03T07:35:53.623Z,2.65
2022-08-03T07:38:21.234Z,3.08
2022-08-03T07:40:48.270Z,2.58
2022-08-03T07:43:14.966Z,2.72
2022-08-03T07:45:41.740Z,2.15
2022-08-03T07:48:12.238Z,2.50
2022-08-03T07:50:39.338Z,2.85
2022-08-03T07:53:06.163Z,2.47
2022-08-03T07:55:33.021Z,2.42
2022-08-03T07:58:21.945Z,2.78
2022-08-03T08:00:52.950Z,2.50
2022-08-03T08:03:21.830Z,2.63
2022-08-03T08:05:49.060Z,2.53
2022-08-03T08:08:17.030Z,2.13
2022-08-03T08:10:58.506Z,2.50
2022-08-03T08:13:25.585Z,1.77
2022-08-03T08:15:52.364Z,2.20
2022-08-03T08:18:19.233Z,2.30
2022-08-03T08:20:46.151Z,2.22
2022-08-03T08:25:59.520Z,2.28
2022-08-03T08:28:32.496Z,2.50
2022-08-03T08:31:01.561Z,2.30
2022-08-03T08:33:42.162Z,2.72
2022-08-03T08:36:15.752Z,2.20
2022-08-03T08:38:44.800Z,2.45
2022-08-03T08:41:12.987Z,2.38
2022-08-03T08:43:40.234Z,2.83
2022-08-03T08:46:08.568Z,2.05
2022-08-03T08:48:39.375Z,2.30
2022-08-03T08:51:07.143Z,2.00
2022-08-03T08:53:37.236Z,2.22
2022-08-03T08:56:07.180Z,2.55
2022-08-03T08:58:38.710Z,2.55
2022-08-03T09:01:06.260Z,2.60
2022-08-03T09:03:36.490Z,2.47
2022-08-03T09:06:03.880Z,2.35
2022-08-03T09:08:31.973Z,2.08
2022-08-03T09:10:59.282Z,2.22
2022-08-03T09:13:26.234Z,2.00
2022-08-03T09:18:39.775Z,1.90
2022-08-03T09:21:30.183Z,2.50
2022-08-03T09:24:04.218Z,2.63
2022-08-03T09:26:34.154Z,2.38
2022-08-03T09:29:05.997Z,2.17
2022-08-03T09:31:44.397Z,2.08
2022-08-03T09:34:14.586Z,2.47
2022-08-03T09:36:45.941Z,2.40
2022-08-03T09:39:40.904Z,2.67
2022-08-03T09:42:11.511Z,2.63
2022-08-03T09:44:44.579Z,2.50
2022-08-03T09:47:13.327Z,1.98
2022-08-03T09:49:42.136Z,2.08
2022-08-03T09:52:38.310Z,2.22
2022-08-03T09:56:30.720Z,2.38
2022-08-03T09:58:08.530Z,6.38
2022-08-03T10:00:53.974Z,3.30
2022-08-03T10:03:21.589Z,2.30
2022-08-03T10:05:48.354Z,2.50
2022-08-03T10:08:16.979Z,2.22
2022-08-03T10:10:45.400Z,2.15
2022-08-03T10:13:14.099Z,1.88
2022-08-03T10:16:23.901Z,2.22
2022-08-03T10:18:28.198Z,1.60
2022-08-03T10:21:01.946Z,1.92
2022-08-03T10:23:33.572Z,1.88
2022-08-03T10:26:04.363Z,2.45
2022-08-03T10:28:39.190Z,1.65
2022-08-03T10:31:10.097Z,2.03
2022-08-03T10:33:49.863Z,2.20
2022-08-03T10:36:23.754Z,2.08
2022-08-03T10:38:53.089Z,2.53
2022-08-03T10:41:30.910Z,1.33
2022-08-03T10:44:15.559Z,2.22
2022-08-03T10:46:45.408Z,1.83
2022-08-03T10:49:34.788Z,1.58
2022-08-03T10:52:07.558Z,1.67
2022-08-03T10:55:10.810Z,1.95
2022-08-03T10:57:49.994Z,2.40
2022-08-03T11:00:22.591Z,2.25
2022-08-03T11:03:06.915Z,1.77
2022-08-03T11:05:36.289Z,2.13
2022-08-03T11:08:19.380Z,1.50
2022-08-03T11:10:47.129Z,1.50
2022-08-03T11:13:19.589Z,2.60
2022-08-03T11:15:48.999Z,1.70
2022-08-03T11:18:16.370Z,2.15
2022-08-03T11:20:49.066Z,2.67
2022-08-03T11:23:17.360Z,2.08
2022-08-03T11:26:10.333Z,2.10
2022-08-03T11:28:38.865Z,1.63
2022-08-03T11:31:49.866Z,1.77
2022-08-03T11:34:14.763Z,2.03
2022-08-03T11:37:24.619Z,1.70
2022-08-03T11:39:55.302Z,2.10
2022-08-03T11:42:26.200Z,2.25
2022-08-03T11:44:55.008Z,2.30
2022-08-03T11:47:23.977Z,2.22
2022-08-03T11:49:54.006Z,1.65
2022-08-03T11:52:26.990Z,2.20
2022-08-03T11:54:56.579Z,2.40
2022-08-03T11:59:10.817Z,1.75
2022-08-03T12:00:32.892Z,1.90
2022-08-03T12:03:14.232Z,1.55
2022-08-03T12:05:51.193Z,2.20
2022-08-03T12:08:28.361Z,1.67
2022-08-03T12:10:57.136Z,1.88
2022-08-03T12:14:32.953Z,1.80
2022-08-03T12:16:24.712Z,1.63
2022-08-03T12:19:05.363Z,2.05
2022-08-03T12:21:33.638Z,1.67
2022-08-03T12:24:05.195Z,1.85
2022-08-03T12:26:58.794Z,1.83
2022-08-03T12:29:27.722Z,1.20
2022-08-03T12:31:56.059Z,1.30
2022-08-03T12:34:23.834Z,1.42
2022-08-03T12:36:53.037Z,1.80
2022-08-03T12:39:24.652Z,0.85
2022-08-03T12:41:55.200Z,1.30
2022-08-03T12:44:33.120Z,1.92
2022-08-03T12:47:00.759Z,1.10
2022-08-03T12:49:31.519Z,1.50
2022-08-03T12:52:03.927Z,1.55
2022-08-03T12:54:36.093Z,1.80
2022-08-03T12:57:05.801Z,1.20
2022-08-03T12:59:42.541Z,1.20
2022-08-03T13:02:23.684Z,1.70
2022-08-03T13:04:52.828Z,1.35
2022-08-03T13:07:21.016Z,1.30
2022-08-03T13:09:50.283Z,1.80
2022-08-03T13:12:20.951Z,1.65
2022-08-03T13:15:01.249Z,1.00
2022-08-03T13:17:28.128Z,1.45
2022-08-03T13:22:23.766Z,1.20
2022-08-03T13:24:52.352Z,1.25
2022-08-03T13:28:13.892Z,1.35
2022-08-03T13:30:07.887Z,1.00
2022-08-03T13:32:34.938Z,1.25
2022-08-03T13:35:02.727Z,1.50
2022-08-03T13:37:32.715Z,1.48
2022-08-03T13:40:02.980Z,2.20
2022-08-03T13:42:31.758Z,1.60
2022-08-03T13:44:59.518Z,1.30
2022-08-03T13:47:28.691Z,1.25
2022-08-03T13:50:01.780Z,1.38
2022-08-03T13:52:38.392Z,1.20
2022-08-03T13:55:06.918Z,1.27
2022-08-03T13:58:19.094Z,1.52
2022-08-03T14:00:27.280Z,1.83
2022-08-03T14:03:02.857Z,1.50
2022-08-03T14:05:32.784Z,1.38
2022-08-03T14:08:04.434Z,1.80
2022-08-03T14:10:33.688Z,1.70
2022-08-03T14:13:00.578Z,1.23
2022-08-03T14:15:28.528Z,1.50
2022-08-03T14:17:56.423Z,1.80
2022-08-03T14:20:38.110Z,1.60
2022-08-03T14:23:14.786Z,1.38
2022-08-03T14:25:43.482Z,1.70
2022-08-03T14:28:18.632Z,1.35
2022-08-03T14:30:45.925Z,1.45
2022-08-03T14:33:12.614Z,1.20
2022-08-03T14:35:39.314Z,1.52
2022-08-03T14:40:33.081Z,1.50
2022-08-03T14:42:59.899Z,1.52
2022-08-03T14:50:28.786Z,1.48
2022-08-03T14:50:44.467Z,1.38
2022-08-03T14:53:13.951Z,1.42
2022-08-03T14:55:49.985Z,1.50
2022-08-03T14:58:20.894Z,1.30
2022-08-03T15:00:49.792Z,1.00
2022-08-03T15:03:17.638Z,1.20
2022-08-03T15:05:44.921Z,1.20
2022-08-03T15:08:11.603Z,1.20
2022-08-03T15:13:12.585Z,1.17
2022-08-03T15:15:39.799Z,1.50
2022-08-03T15:18:06.810Z,1.20
2022-08-03T15:20:44.511Z,1.25
2022-08-03T15:23:12.932Z,1.02
2022-08-03T15:26:28.330Z,1.10
2022-08-03T15:28:26.493Z,0.90
2022-08-03T15:30:53.299Z,1.08
2022-08-03T15:33:20.202Z,1.52
2022-08-03T15:35:47.416Z,1.20
2022-08-03T15:38:14.459Z,1.05
2022-08-03T15:40:41.513Z,1.48
2022-08-03T15:43:08.319Z,0.90
2022-08-03T15:45:36.628Z,1.20
2022-08-03T15:48:05.230Z,1.13
2022-08-03T15:50:32.557Z,1.10
2022-08-03T15:52:59.347Z,1.00
2022-08-03T15:59:09.240Z,1.02
2022-08-03T16:00:41.608Z,1.23
2022-08-03T16:03:08.349Z,1.10
2022-08-03T16:05:35.487Z,1.30
2022-08-03T16:08:03.586Z,1.00
2022-08-03T16:10:31.542Z,1.20
2022-08-03T16:13:01.145Z,1.20
2022-08-03T16:15:28.006Z,1.02
2022-08-03T16:17:54.847Z,1.10
2022-08-03T16:20:34.429Z,1.08
2022-08-03T16:23:10.752Z,0.90
2022-08-03T16:25:40.212Z,1.10
2022-08-03T16:28:13.074Z,1.10
2022-08-03T16:30:41.974Z,1.20
2022-08-03T16:33:08.852Z,1.02
2022-08-03T16:35:35.719Z,1.20
2022-08-03T16:38:07.824Z,1.05
2022-08-03T16:40:36.749Z,0.98
2022-08-03T16:43:17.865Z,1.10
2022-08-03T16:45:49.956Z,1.00
2022-08-03T16:48:17.781Z,1.05
2022-08-03T16:50:45.357Z,1.30
2022-08-03T16:53:16.580Z,1.10
2022-08-03T16:55:53.365Z,1.08
2022-08-03T16:58:34.825Z,0.95
2022-08-03T17:01:21.667Z,0.90
2022-08-03T17:04:02.816Z,0.90
2022-08-03T17:06:37.054Z,1.20
2022-08-03T17:09:11.693Z,0.95
2022-08-03T17:11:47.093Z,1.20
2022-08-03T17:14:16.637Z,1.10
2022-08-03T17:16:52.663Z,0.90
2022-08-03T17:19:23.251Z,1.13
2022-08-03T17:22:06.285Z,1.17
2022-08-03T17:24:35.669Z,1.10
2022-08-03T17:27:23.104Z,1.27
2022-08-03T17:30:05.393Z,0.90
2022-08-03T17:32:42.240Z,1.00
2022-08-03T17:35:10.375Z,1.23
2022-08-03T17:37:58.515Z,1.17
2022-08-03T17:40:24.283Z,1.00
2022-08-03T17:42:52.930Z,1.20
2022-08-03T17:45:20.528Z,1.00
2022-08-03T17:47:57.414Z,0.95
2022-08-03T17:50:33.159Z,1.25
2022-08-03T17:53:15.583Z,0.83
2022-08-03T17:56:42.669Z,1.17
2022-08-03T17:59:51.643Z,1.00
2022-08-03T18:03:04.648Z,1.67
2022-08-03T18:06:08.989Z,1.17
2022-08-03T18:08:36.402Z,1.40
2022-08-03T18:11:09.702Z,1.63
2022-08-03T18:13:58.278Z,1.00
2022-08-03T18:16:34.623Z,1.27
2022-08-03T18:19:09.236Z,1.30
2022-08-03T18:22:02.831Z,1.20
2022-08-03T18:24:25.655Z,1.20
2022-08-03T18:26:55.726Z,1.20
2022-08-03T18:29:25.386Z,1.25
2022-08-03T18:32:05.334Z,1.55
2022-08-03T18:34:41.165Z,1.38
2022-08-03T18:37:25.466Z,1.65
2022-08-03T18:39:55.662Z,1.10
2022-08-03T18:42:26.499Z,1.52
2022-08-03T18:44:56.419Z,1.30
2022-08-03T18:47:51.619Z,1.70
2022-08-03T18:50:26.712Z,1.92
2022-08-03T18:52:56.929Z,1.38
2022-08-03T18:55:33.469Z,1.30
2022-08-03T18:58:15.970Z,1.20
2022-08-03T19:01:01.325Z,1.38
2022-08-03T19:03:42.808Z,1.95
2022-08-03T19:06:19.853Z,1.17
2022-08-03T19:08:55.566Z,1.30
2022-08-03T19:11:28.903Z,1.48
2022-08-03T19:14:22.239Z,1.13
2022-08-03T19:17:07.298Z,1.50
2022-08-03T19:19:43.470Z,1.20
2022-08-03T19:22:16.079Z,1.20
2022-08-03T19:24:48.986Z,1.20
2022-08-03T19:27:16.307Z,1.48
2022-08-03T19:29:57.931Z,1.40
2022-08-03T19:32:30.956Z,2.85
2022-08-03T19:35:00.863Z,1.27
2022-08-03T19:37:38.164Z,1.25
2022-08-03T19:40:10.433Z,1.58
2022-08-03T19:42:54.578Z,1.10
2022-08-03T19:46:04.863Z,1.20
2022-08-03T19:48:29.615Z,1.25
2022-08-03T19:50:59.164Z,1.35
2022-08-03T19:53:34.607Z,1.60
2022-08-03T19:56:06.083Z,1.27
2022-08-03T19:58:33.880Z,1.20
2022-08-03T20:01:21.588Z,1.35
2022-08-03T20:03:52.868Z,1.13
2022-08-03T20:06:23.741Z,1.35
2022-08-03T20:08:51.589Z,1.27
2022-08-03T20:11:20.054Z,1.23
2022-08-03T20:13:50.722Z,1.30
2022-08-03T20:16:17.771Z,1.17
2022-08-03T20:18:44.854Z,1.27
2022-08-03T20:21:14.783Z,1.27
2022-08-03T20:24:01.993Z,1.70
2022-08-03T20:26:31.707Z,1.65
2022-08-03T20:29:10.072Z,1.60
2022-08-03T20:31:37.513Z,1.48
2022-08-03T20:36:36.345Z,1.73
2022-08-03T20:39:07.493Z,1.65
2022-08-03T20:41:40.008Z,1.40
2022-08-03T20:44:08.753Z,1.58
2022-08-03T20:49:24.146Z,1.48
2022-08-03T20:51:53.620Z,1.45
2022-08-03T20:54:29.555Z,1.40
2022-08-03T20:57:04.087Z,1.27
2022-08-03T20:59:50.226Z,1.40
2022-08-03T21:02:29.882Z,1.30
2022-08-03T21:05:02.901Z,1.42
2022-08-03T21:07:45.950Z,1.75
2022-08-03T21:10:24.820Z,1.20
2022-08-03T21:13:12.284Z,1.30
2022-08-03T21:13:17.143Z,1.40
2022-08-03T21:16:06.860Z,1.55
2022-08-03T21:18:44.323Z,1.55
2022-08-03T21:21:14.553Z,1.38
2022-08-03T21:23:48.909Z,1.42
2022-08-03T21:26:19.620Z,1.42
2022-08-03T21:28:49.889Z,1.55
2022-08-03T21:31:24.812Z,1.50
2022-08-03T21:33:57.703Z,1.58
2022-08-03T21:36:27.629Z,1.92
2022-08-03T21:38:55.765Z,1.63
2022-08-03T21:41:24.717Z,1.40
2022-08-03T21:43:51.626Z,1.23
2022-08-03T21:46:22.653Z,1.55
2022-08-03T21:48:56.358Z,1.83
2022-08-03T21:51:43.584Z,1.50
2022-08-03T21:54:12.275Z,1.65
2022-08-03T21:56:42.475Z,1.50
2022-08-03T21:59:18.176Z,2.00
2022-08-03T22:01:49.004Z,1.23
2022-08-03T22:04:50.375Z,1.27
2022-08-03T22:07:10.447Z,1.42
2022-08-03T22:09:37.425Z,1.50
2022-08-03T22:12:06.375Z,1.35
2022-08-03T22:14:33.880Z,1.70
2022-08-03T22:17:06.484Z,1.40
2022-08-03T22:19:34.567Z,1.60
2022-08-03T22:22:05.947Z,1.35
2022-08-03T22:24:35.790Z,1.60
2022-08-03T22:27:22.462Z,1.50
2022-08-03T22:29:50.119Z,1.83
2022-08-03T22:32:17.008Z,1.85
2022-08-03T22:34:46.600Z,1.60
2022-08-03T22:37:16.566Z,2.10
2022-08-03T22:39:44.552Z,1.70
2022-08-03T22:42:12.097Z,1.75
2022-08-03T22:44:39.699Z,2.15
2022-08-03T22:47:06.952Z,1.60
2022-08-03T22:49:35.576Z,1.70
2022-08-03T22:52:02.580Z,1.42
2022-08-03T22:54:32.064Z,1.42
2022-08-03T22:56:58.987Z,1.80
2022-08-03T22:59:38.866Z,1.75
2022-08-03T23:02:20.133Z,1.73
2022-08-03T23:04:57.442Z,1.48
2022-08-03T23:07:31.723Z,1.45
2022-08-03T23:10:01.603Z,1.55
2022-08-03T23:12:30.302Z,1.55
2022-08-03T23:15:01.401Z,1.60
2022-08-03T23:17:31.146Z,1.98
2022-08-03T23:20:08.150Z,1.90
2022-08-03T23:25:04.592Z,1.80
2022-08-03T23:27:33.103Z,1.48
2022-08-03T23:30:01.692Z,1.60
2022-08-03T23:32:30.488Z,1.77
2022-08-03T23:35:22.924Z,1.50
2022-08-03T23:38:22.330Z,1.20
2022-08-03T23:40:51.333Z,1.50
2022-08-03T23:43:51.420Z,1.67
2022-08-03T23:46:07.615Z,2.10
2022-08-03T23:48:34.395Z,1.70
2022-08-03T23:51:09.996Z,1.60
2022-08-03T23:53:45.095Z,1.70
2022-08-03T23:56:39.875Z,2.13
